NORTHEAST SUFFOLK  -  Rip Current Statement Rip Current Statement        NORTHWEST SUFFOLK  -  Rip Current Statement Rip Current Statement        SOUTHEAST SUFFOLK  -  Rip Current Statement Rip Current Statement        SOUTHWEST SUFFOLK  -  Rip Current Statement Rip Current Statement      

Active alerts

Northwest Suffolk
  Details for Northwest Suffolk Rip Current Statement
Southwest Suffolk
  Details for Southwest Suffolk Rip Current Statement
Northeast Suffolk
  Details for Northeast Suffolk Rip Current Statement
Southeast Suffolk
  Details for Southeast Suffolk Rip Current Statement


WXM80 ListenWXM80 Stop

You find our weather info also at:

UK Metoffice

WeatherCloud

Weather Underground

Northeastern Weather Network

AWEKAS

Citizen Weather Observer Program (CWOP)

HAMweather, WeatherForYou, PWS Weather


Weather Underground History page Text

Daily Summary for February 28, 2018 Units:  Both    English   Metric
« Previous Day
Next Day »
Daily Weekly Monthly Yearly Custom
  High: Low: Average:
Temperature: 59.4 °F /  15.2 °C 37.5 °F /  3.1 °C 48.1 °F /  8.9 °C
Dew Point: 42.1 °F /  5.6 °C 29.1 °F /  -1.6 °C 35.7 °F /  2.1 °C
Humidity: 77 % 42 % 63 %
Wind Speed: 8.2 mph /  13.2 km/h - 3.2 mph /  5.1 km/h
Wind Gust: 13.8 mph /  22.2 km/h - -
Wind:- - SSW
Pressure: 29.94 in /  1013.8 hPa 29.60 in /  1002.3 hPa -
Precipitation: 0.00 in /  0 mm    
Historical Graphs
 
 
Tabular Data for February 28, 2018
Time Temperature Dew Point Pressure Wind Wind Speed Wind Gust Humidity Rainfall Rate (Hourly)
00:00 42.0 °F /  5.6 °C 31.8 °F /  -0.1 °C 29.94 in /  1013.8 hPa South 3.3 mph /  5.3 km/h 6.9 mph /  11.1 km/h 67 % 0.00 in /  0 mm
00:05 41.9 °F /  5.5 °C 31.4 °F /  -0.3 °C 29.94 in /  1013.8 hPa SSW 4.1 mph /  6.6 km/h 6.9 mph /  11.1 km/h 66 % 0.00 in /  0 mm
00:10 41.9 °F /  5.5 °C 31.4 °F /  -0.3 °C 29.94 in /  1013.8 hPa SW 3.3 mph /  5.3 km/h 11.5 mph /  18.5 km/h 66 % 0.00 in /  0 mm
00:15 41.9 °F /  5.5 °C 31.4 °F /  -0.3 °C 29.94 in /  1013.8 hPa SSW 5.6 mph /  9 km/h 9.2 mph /  14.8 km/h 66 % 0.00 in /  0 mm
00:20 41.9 °F /  5.5 °C 31.4 °F /  -0.3 °C 29.94 in /  1013.8 hPa SSW 2.7 mph /  4.3 km/h 8.1 mph /  13 km/h 66 % 0.00 in /  0 mm
00:25 41.9 °F /  5.5 °C 31.4 °F /  -0.3 °C 29.94 in /  1013.8 hPa WSW 2.4 mph /  3.9 km/h 5.0 mph /  8 km/h 66 % 0.00 in /  0 mm
00:30 41.9 °F /  5.5 °C 31.4 °F /  -0.3 °C 29.94 in /  1013.8 hPa SSW 3.5 mph /  5.6 km/h 7.0 mph /  11.3 km/h 66 % 0.00 in /  0 mm
00:35 41.8 °F /  5.4 °C 31.3 °F /  -0.4 °C 29.94 in /  1013.8 hPa South 3.1 mph /  5 km/h 5.8 mph /  9.3 km/h 66 % 0.00 in /  0 mm
00:40 41.8 °F /  5.4 °C 31.3 °F /  -0.4 °C 29.94 in /  1013.8 hPa SSW 4.9 mph /  7.9 km/h 9.2 mph /  14.8 km/h 66 % 0.00 in /  0 mm
00:45 41.9 °F /  5.5 °C 31.4 °F /  -0.3 °C 29.94 in /  1013.8 hPa South 5.0 mph /  8 km/h 8.1 mph /  13 km/h 66 % 0.00 in /  0 mm
00:50 41.9 °F /  5.5 °C 31.4 °F /  -0.3 °C 29.94 in /  1013.8 hPa SW 4.2 mph /  6.8 km/h 5.0 mph /  8 km/h 66 % 0.00 in /  0 mm
00:56 42.0 °F /  5.6 °C 31.1 °F /  -0.5 °C 29.94 in /  1013.8 hPa SSW 3.0 mph /  4.8 km/h 9.0 mph /  14.5 km/h 65 % 0.00 in /  0 mm
01:01 42.0 °F /  5.6 °C 31.1 °F /  -0.5 °C 29.94 in /  1013.8 hPa SSW 2.2 mph /  3.5 km/h 6.9 mph /  11.1 km/h 65 % 0.00 in /  0 mm
01:06 42.0 °F /  5.6 °C 31.1 °F /  -0.5 °C 29.94 in /  1013.8 hPa SW 4.5 mph /  7.2 km/h 8.1 mph /  13 km/h 65 % 0.00 in /  0 mm
01:11 42.0 °F /  5.6 °C 30.7 °F /  -0.7 °C 29.94 in /  1013.8 hPa SSW 4.4 mph /  7.1 km/h 8.1 mph /  13 km/h 64 % 0.00 in /  0 mm
01:16 42.1 °F /  5.6 °C 31.2 °F /  -0.4 °C 29.94 in /  1013.8 hPa SW 5.5 mph /  8.9 km/h 8.1 mph /  13 km/h 65 % 0.00 in /  0 mm
01:21 42.1 °F /  5.6 °C 31.2 °F /  -0.4 °C 29.94 in /  1013.8 hPa WSW 6.9 mph /  11.1 km/h 11.5 mph /  18.5 km/h 65 % 0.00 in /  0 mm
01:26 42.1 °F /  5.6 °C 30.8 °F /  -0.7 °C 29.94 in /  1013.8 hPa SSW 4.8 mph /  7.7 km/h 6.9 mph /  11.1 km/h 64 % 0.00 in /  0 mm
01:31 42.1 °F /  5.6 °C 31.2 °F /  -0.4 °C 29.94 in /  1013.8 hPa SW 2.5 mph /  4 km/h 4.6 mph /  7.4 km/h 65 % 0.00 in /  0 mm
01:36 42.1 °F /  5.6 °C 31.2 °F /  -0.4 °C 29.94 in /  1013.8 hPa SSW 4.4 mph /  7.1 km/h 6.9 mph /  11.1 km/h 65 % 0.00 in /  0 mm
01:41 42.0 °F /  5.6 °C 31.1 °F /  -0.5 °C 29.94 in /  1013.8 hPa SSW 4.3 mph /  6.9 km/h 6.0 mph /  9.7 km/h 65 % 0.00 in /  0 mm
01:46 42.0 °F /  5.6 °C 31.1 °F /  -0.5 °C 29.94 in /  1013.8 hPa SSW 6.1 mph /  9.8 km/h 10.4 mph /  16.7 km/h 65 % 0.00 in /  0 mm
01:51 42.0 °F /  5.6 °C 31.1 °F /  -0.5 °C 29.94 in /  1013.8 hPa South 3.8 mph /  6.1 km/h 9.0 mph /  14.5 km/h 65 % 0.00 in /  0 mm
01:56 41.9 °F /  5.5 °C 31.0 °F /  -0.6 °C 29.94 in /  1013.8 hPa SSW 4.5 mph /  7.2 km/h 8.1 mph /  13 km/h 65 % 0.00 in /  0 mm
02:01 41.9 °F /  5.5 °C 31.0 °F /  -0.6 °C 29.94 in /  1013.8 hPa SSW 3.1 mph /  5 km/h 6.0 mph /  9.7 km/h 65 % 0.00 in /  0 mm
02:06 41.9 °F /  5.5 °C 31.0 °F /  -0.6 °C 29.94 in /  1013.8 hPa SSW 3.1 mph /  5 km/h 5.8 mph /  9.3 km/h 65 % 0.00 in /  0 mm
02:11 41.8 °F /  5.4 °C 31.3 °F /  -0.4 °C 29.94 in /  1013.8 hPa South 1.2 mph /  1.9 km/h 3.5 mph /  5.6 km/h 66 % 0.00 in /  0 mm
02:16 41.8 °F /  5.4 °C 30.9 °F /  -0.6 °C 29.93 in /  1013.4 hPa SW 2.8 mph /  4.5 km/h 10.4 mph /  16.7 km/h 65 % 0.00 in /  0 mm
02:21 41.8 °F /  5.4 °C 30.9 °F /  -0.6 °C 29.93 in /  1013.4 hPa SSW 1.8 mph /  2.9 km/h 3.5 mph /  5.6 km/h 65 % 0.00 in /  0 mm
02:26 41.7 °F /  5.4 °C 30.8 °F /  -0.7 °C 29.93 in /  1013.4 hPa SSW 4.7 mph /  7.6 km/h 6.9 mph /  11.1 km/h 65 % 0.00 in /  0 mm
02:31 41.6 °F /  5.3 °C 30.7 °F /  -0.7 °C 29.93 in /  1013.4 hPa SSW 2.4 mph /  3.9 km/h 3.5 mph /  5.6 km/h 65 % 0.00 in /  0 mm
02:37 41.5 °F /  5.3 °C 30.6 °F /  -0.8 °C 29.93 in /  1013.4 hPa South 1.8 mph /  2.9 km/h 5.0 mph /  8 km/h 65 % 0.00 in /  0 mm
02:42 41.4 °F /  5.2 °C 30.5 °F /  -0.8 °C 29.93 in /  1013.4 hPa SSW 3.0 mph /  4.8 km/h 4.0 mph /  6.4 km/h 65 % 0.00 in /  0 mm
02:47 41.3 °F /  5.2 °C 30.8 °F /  -0.7 °C 29.92 in /  1013.1 hPa SW 2.3 mph /  3.7 km/h 3.5 mph /  5.6 km/h 66 % 0.00 in /  0 mm
02:52 41.2 °F /  5.1 °C 30.7 °F /  -0.7 °C 29.92 in /  1013.1 hPa SSW 1.4 mph /  2.3 km/h 5.8 mph /  9.3 km/h 66 % 0.00 in /  0 mm
02:57 41.1 °F /  5.1 °C 30.6 °F /  -0.8 °C 29.92 in /  1013.1 hPa SSW 0.9 mph /  1.4 km/h 2.3 mph /  3.7 km/h 66 % 0.00 in /  0 mm
03:02 41.0 °F /  5 °C 30.5 °F /  -0.8 °C 29.92 in /  1013.1 hPa SSW 0.6 mph /  1 km/h 3.5 mph /  5.6 km/h 66 % 0.00 in /  0 mm
03:07 40.9 °F /  4.9 °C 30.4 °F /  -0.9 °C 29.92 in /  1013.1 hPa SW 2.1 mph /  3.4 km/h 3.5 mph /  5.6 km/h 66 % 0.00 in /  0 mm
03:12 40.7 °F /  4.8 °C 30.2 °F /  -1 °C 29.92 in /  1013.1 hPa SSW 2.3 mph /  3.7 km/h 4.0 mph /  6.4 km/h 66 % 0.00 in /  0 mm
03:17 40.5 °F /  4.7 °C 30.0 °F /  -1.1 °C 29.91 in /  1012.8 hPa SSW 2.6 mph /  4.2 km/h 5.8 mph /  9.3 km/h 66 % 0.00 in /  0 mm
03:22 40.4 °F /  4.7 °C 29.9 °F /  -1.2 °C 29.91 in /  1012.8 hPa SSW 3.4 mph /  5.5 km/h 7.0 mph /  11.3 km/h 66 % 0.00 in /  0 mm
03:27 40.3 °F /  4.6 °C 29.8 °F /  -1.2 °C 29.91 in /  1012.8 hPa SSW 2.5 mph /  4 km/h 4.6 mph /  7.4 km/h 66 % 0.00 in /  0 mm
03:32 40.2 °F /  4.6 °C 29.7 °F /  -1.3 °C 29.91 in /  1012.8 hPa SSW 2.8 mph /  4.5 km/h 4.0 mph /  6.4 km/h 66 % 0.00 in /  0 mm
03:37 40.1 °F /  4.5 °C 29.6 °F /  -1.3 °C 29.91 in /  1012.8 hPa SSW 1.8 mph /  2.9 km/h 3.5 mph /  5.6 km/h 66 % 0.00 in /  0 mm
03:42 40.0 °F /  4.4 °C 29.6 °F /  -1.3 °C 29.91 in /  1012.8 hPa SSW 3.9 mph /  6.3 km/h 5.0 mph /  8 km/h 66 % 0.00 in /  0 mm
03:47 39.9 °F /  4.4 °C 29.5 °F /  -1.4 °C 29.91 in /  1012.8 hPa SSW 3.2 mph /  5.1 km/h 4.6 mph /  7.4 km/h 66 % 0.00 in /  0 mm
03:52 39.8 °F /  4.3 °C 29.4 °F /  -1.4 °C 29.90 in /  1012.4 hPa SSW 1.3 mph /  2.1 km/h 3.5 mph /  5.6 km/h 66 % 0.00 in /  0 mm
03:57 39.8 °F /  4.3 °C 29.4 °F /  -1.4 °C 29.90 in /  1012.4 hPa South 0.5 mph /  0.8 km/h 4.6 mph /  7.4 km/h 66 % 0.00 in /  0 mm
04:02 39.7 °F /  4.3 °C 29.3 °F /  -1.5 °C 29.90 in /  1012.4 hPa SW 1.9 mph /  3.1 km/h 3.5 mph /  5.6 km/h 66 % 0.00 in /  0 mm
04:07 39.7 °F /  4.3 °C 29.6 °F /  -1.3 °C 29.90 in /  1012.4 hPa SSW 1.3 mph /  2.1 km/h 3.5 mph /  5.6 km/h 67 % 0.00 in /  0 mm
04:13 39.6 °F /  4.2 °C 29.5 °F /  -1.4 °C 29.91 in /  1012.8 hPa SW 2.0 mph /  3.2 km/h 3.0 mph /  4.8 km/h 67 % 0.00 in /  0 mm
04:18 39.5 °F /  4.2 °C 29.4 °F /  -1.4 °C 29.91 in /  1012.8 hPa SSW 1.1 mph /  1.8 km/h 3.5 mph /  5.6 km/h 67 % 0.00 in /  0 mm
04:23 39.5 °F /  4.2 °C 29.4 °F /  -1.4 °C 29.91 in /  1012.8 hPa SSW 0.4 mph /  0.6 km/h 1.2 mph /  1.9 km/h 67 % 0.00 in /  0 mm
04:28 39.3 °F /  4.1 °C 29.3 °F /  -1.5 °C 29.91 in /  1012.8 hPa SSW 0.2 mph /  0.3 km/h 2.3 mph /  3.7 km/h 67 % 0.00 in /  0 mm
04:33 39.3 °F /  4.1 °C 29.3 °F /  -1.5 °C 29.91 in /  1012.8 hPa Calm   1.2 mph /  1.9 km/h 67 % 0.00 in /  0 mm
04:38 39.1 °F /  3.9 °C 29.1 °F /  -1.6 °C 29.91 in /  1012.8 hPa SSW 0.2 mph /  0.3 km/h 2.3 mph /  3.7 km/h 67 % 0.00 in /  0 mm
04:43 39.0 °F /  3.9 °C 29.3 °F /  -1.5 °C 29.91 in /  1012.8 hPa SSW 0.1 mph /  0.2 km/h 1.2 mph /  1.9 km/h 68 % 0.00 in /  0 mm
04:48 38.8 °F /  3.8 °C 29.1 °F /  -1.6 °C 29.91 in /  1012.8 hPa Calm   2.3 mph /  3.7 km/h 68 % 0.00 in /  0 mm
04:53 38.7 °F /  3.7 °C 29.4 °F /  -1.4 °C 29.90 in /  1012.4 hPa Calm     69 % 0.00 in /  0 mm
04:58 38.5 °F /  3.6 °C 29.2 °F /  -1.6 °C 29.90 in /  1012.4 hPa SSW 0.5 mph /  0.8 km/h 2.3 mph /  3.7 km/h 69 % 0.00 in /  0 mm
05:03 38.4 °F /  3.6 °C 29.1 °F /  -1.6 °C 29.90 in /  1012.4 hPa SSW 0.7 mph /  1.1 km/h 3.0 mph /  4.8 km/h 69 % 0.00 in /  0 mm
05:08 38.2 °F /  3.4 °C 29.3 °F /  -1.5 °C 29.90 in /  1012.4 hPa SSW 1.7 mph /  2.7 km/h 3.5 mph /  5.6 km/h 70 % 0.00 in /  0 mm
05:13 38.1 °F /  3.4 °C 29.5 °F /  -1.4 °C 29.90 in /  1012.4 hPa SSW 2.2 mph /  3.5 km/h 4.6 mph /  7.4 km/h 71 % 0.00 in /  0 mm
05:18 38.1 °F /  3.4 °C 29.5 °F /  -1.4 °C 29.90 in /  1012.4 hPa SSW 1.2 mph /  1.9 km/h 2.3 mph /  3.7 km/h 71 % 0.00 in /  0 mm
05:23 38.0 °F /  3.3 °C 29.4 °F /  -1.4 °C 29.90 in /  1012.4 hPa SSW 1.7 mph /  2.7 km/h 3.5 mph /  5.6 km/h 71 % 0.00 in /  0 mm
05:28 38.0 °F /  3.3 °C 29.4 °F /  -1.4 °C 29.90 in /  1012.4 hPa SSW 1.5 mph /  2.4 km/h 3.5 mph /  5.6 km/h 71 % 0.00 in /  0 mm
05:33 38.0 °F /  3.3 °C 29.8 °F /  -1.2 °C 29.90 in /  1012.4 hPa SSW 1.0 mph /  1.6 km/h 2.3 mph /  3.7 km/h 72 % 0.00 in /  0 mm
05:38 37.9 °F /  3.3 °C 29.7 °F /  -1.3 °C 29.90 in /  1012.4 hPa Calm     72 % 0.00 in /  0 mm
05:44 37.9 °F /  3.3 °C 29.7 °F /  -1.3 °C 29.90 in /  1012.4 hPa SSW 0.2 mph /  0.3 km/h 1.2 mph /  1.9 km/h 72 % 0.00 in /  0 mm
05:48 37.9 °F /  3.3 °C 29.7 °F /  -1.3 °C 29.90 in /  1012.4 hPa Calm     72 % 0.00 in /  0 mm
05:53 37.8 °F /  3.2 °C 29.9 °F /  -1.2 °C 29.90 in /  1012.4 hPa Calm     73 % 0.00 in /  0 mm
05:59 37.8 °F /  3.2 °C 29.9 °F /  -1.2 °C 29.89 in /  1012.1 hPa Calm     73 % 0.00 in /  0 mm
06:04 37.8 °F /  3.2 °C 29.9 °F /  -1.2 °C 29.90 in /  1012.4 hPa Calm     73 % 0.00 in /  0 mm
06:09 37.7 °F /  3.2 °C 29.8 °F /  -1.2 °C 29.89 in /  1012.1 hPa SSW 0.2 mph /  0.3 km/h 2.3 mph /  3.7 km/h 73 % 0.00 in /  0 mm
06:14 37.7 °F /  3.2 °C 30.2 °F /  -1 °C 29.89 in /  1012.1 hPa SSW 1.0 mph /  1.6 km/h 3.5 mph /  5.6 km/h 74 % 0.00 in /  0 mm
06:19 37.6 °F /  3.1 °C 30.1 °F /  -1.1 °C 29.89 in /  1012.1 hPa SSW 0.2 mph /  0.3 km/h 2.3 mph /  3.7 km/h 74 % 0.00 in /  0 mm
06:24 37.6 °F /  3.1 °C 30.4 °F /  -0.9 °C 29.89 in /  1012.1 hPa SSW 0.3 mph /  0.5 km/h 3.5 mph /  5.6 km/h 75 % 0.00 in /  0 mm
06:29 37.5 °F /  3.1 °C 30.3 °F /  -0.9 °C 29.88 in /  1011.7 hPa SSW 0.4 mph /  0.6 km/h 2.3 mph /  3.7 km/h 75 % 0.00 in /  0 mm
06:34 37.5 °F /  3.1 °C 30.3 °F /  -0.9 °C 29.88 in /  1011.7 hPa SSW 1.3 mph /  2.1 km/h 3.5 mph /  5.6 km/h 75 % 0.00 in /  0 mm
06:39 37.5 °F /  3.1 °C 30.6 °F /  -0.8 °C 29.88 in /  1011.7 hPa WSW 0.5 mph /  0.8 km/h 3.5 mph /  5.6 km/h 76 % 0.00 in /  0 mm
06:44 37.6 °F /  3.1 °C 31.0 °F /  -0.6 °C 29.88 in /  1011.7 hPa SW 0.8 mph /  1.3 km/h 3.5 mph /  5.6 km/h 77 % 0.00 in /  0 mm
06:49 37.7 °F /  3.2 °C 31.1 °F /  -0.5 °C 29.88 in /  1011.7 hPa South 0.2 mph /  0.3 km/h 2.3 mph /  3.7 km/h 77 % 0.00 in /  0 mm
06:54 37.8 °F /  3.2 °C 31.2 °F /  -0.4 °C 29.87 in /  1011.4 hPa SSW 1.1 mph /  1.8 km/h 4.6 mph /  7.4 km/h 77 % 0.00 in /  0 mm
06:59 38.0 °F /  3.3 °C 31.4 °F /  -0.3 °C 29.87 in /  1011.4 hPa SSW 3.4 mph /  5.5 km/h 6.9 mph /  11.1 km/h 77 % 0.00 in /  0 mm
07:04 38.3 °F /  3.5 °C 31.7 °F /  -0.2 °C 29.88 in /  1011.7 hPa SW 1.0 mph /  1.6 km/h 3.5 mph /  5.6 km/h 77 % 0.00 in /  0 mm
07:09 38.6 °F /  3.7 °C 31.7 °F /  -0.2 °C 29.87 in /  1011.4 hPa SW 2.2 mph /  3.5 km/h 5.8 mph /  9.3 km/h 76 % 0.00 in /  0 mm
07:14 38.9 °F /  3.8 °C 32.0 °F /  0 °C 29.87 in /  1011.4 hPa SW 0.7 mph /  1.1 km/h 3.5 mph /  5.6 km/h 76 % 0.00 in /  0 mm
07:19 39.2 °F /  4 °C 31.9 °F /  -0.1 °C 29.87 in /  1011.4 hPa South 1.0 mph /  1.6 km/h 3.5 mph /  5.6 km/h 75 % 0.00 in /  0 mm
07:24 39.4 °F /  4.1 °C 31.8 °F /  -0.1 °C 29.87 in /  1011.4 hPa SW 2.4 mph /  3.9 km/h 4.6 mph /  7.4 km/h 74 % 0.00 in /  0 mm
07:29 39.6 °F /  4.2 °C 31.7 °F /  -0.2 °C 29.88 in /  1011.7 hPa SW 3.4 mph /  5.5 km/h 7.0 mph /  11.3 km/h 73 % 0.00 in /  0 mm
07:34 39.9 °F /  4.4 °C 31.6 °F /  -0.2 °C 29.87 in /  1011.4 hPa SSW 2.2 mph /  3.5 km/h 6.9 mph /  11.1 km/h 72 % 0.00 in /  0 mm
07:39 40.1 °F /  4.5 °C 31.8 °F /  -0.1 °C 29.87 in /  1011.4 hPa South 3.5 mph /  5.6 km/h 3.5 mph /  5.6 km/h 72 % 0.00 in /  0 mm
07:45 40.3 °F /  4.6 °C 31.6 °F /  -0.2 °C 29.87 in /  1011.4 hPa SSW 2.0 mph /  3.2 km/h 5.0 mph /  8 km/h 71 % 0.00 in /  0 mm
07:50 40.5 °F /  4.7 °C 31.5 °F /  -0.3 °C 29.88 in /  1011.7 hPa SSW 4.5 mph /  7.2 km/h 8.1 mph /  13 km/h 70 % 0.00 in /  0 mm
07:55 40.8 °F /  4.9 °C 31.8 °F /  -0.1 °C 29.88 in /  1011.7 hPa SSW 4.8 mph /  7.7 km/h 9.2 mph /  14.8 km/h 70 % 0.00 in /  0 mm
08:00 41.1 °F /  5.1 °C 31.7 °F /  -0.2 °C 29.88 in /  1011.7 hPa SSW 3.6 mph /  5.8 km/h 6.9 mph /  11.1 km/h 69 % 0.00 in /  0 mm
08:05 41.5 °F /  5.3 °C 31.7 °F /  -0.2 °C 29.87 in /  1011.4 hPa SSW 3.6 mph /  5.8 km/h 7.0 mph /  11.3 km/h 68 % 0.00 in /  0 mm
08:10 41.9 °F /  5.5 °C 32.1 °F /  0.1 °C 29.87 in /  1011.4 hPa SSW 4.4 mph /  7.1 km/h 8.1 mph /  13 km/h 68 % 0.00 in /  0 mm
08:15 42.4 °F /  5.8 °C 32.6 °F /  0.3 °C 29.87 in /  1011.4 hPa SSW 4.0 mph /  6.4 km/h 6.0 mph /  9.7 km/h 68 % 0.00 in /  0 mm
08:20 42.9 °F /  6.1 °C 33.1 °F /  0.6 °C 29.86 in /  1011.1 hPa South 2.9 mph /  4.7 km/h 5.8 mph /  9.3 km/h 68 % 0.00 in /  0 mm
08:25 43.4 °F /  6.3 °C 33.2 °F /  0.7 °C 29.86 in /  1011.1 hPa SSW 3.6 mph /  5.8 km/h 5.8 mph /  9.3 km/h 67 % 0.00 in /  0 mm
08:30 43.8 °F /  6.6 °C 32.4 °F /  0.2 °C 29.87 in /  1011.4 hPa SSW 5.7 mph /  9.2 km/h 6.9 mph /  11.1 km/h 64 % 0.00 in /  0 mm
08:35 44.1 °F /  6.7 °C 32.3 °F /  0.2 °C 29.87 in /  1011.4 hPa SSW 6.6 mph /  10.6 km/h 11.5 mph /  18.5 km/h 63 % 0.00 in /  0 mm
08:40 44.5 °F /  6.9 °C 32.7 °F /  0.4 °C 29.87 in /  1011.4 hPa SSW 4.4 mph /  7.1 km/h 7.0 mph /  11.3 km/h 63 % 0.00 in /  0 mm
08:45 44.8 °F /  7.1 °C 32.6 °F /  0.3 °C 29.87 in /  1011.4 hPa South 7.3 mph /  11.7 km/h 11.5 mph /  18.5 km/h 62 % 0.00 in /  0 mm
08:50 45.2 °F /  7.3 °C 32.5 °F /  0.3 °C 29.87 in /  1011.4 hPa SSW 2.2 mph /  3.5 km/h 4.6 mph /  7.4 km/h 61 % 0.00 in /  0 mm
08:55 45.6 °F /  7.6 °C 32.9 °F /  0.5 °C 29.86 in /  1011.1 hPa SSW 3.5 mph /  5.6 km/h 6.9 mph /  11.1 km/h 61 % 0.00 in /  0 mm
09:00 46.0 °F /  7.8 °C 32.9 °F /  0.5 °C 29.86 in /  1011.1 hPa SSE 3.6 mph /  5.8 km/h 10.4 mph /  16.7 km/h 60 % 0.00 in /  0 mm
09:05 46.4 °F /  8 °C 33.7 °F /  0.9 °C 29.86 in /  1011.1 hPa SSW 4.7 mph /  7.6 km/h 7.0 mph /  11.3 km/h 61 % 0.00 in /  0 mm
09:10 47.1 °F /  8.4 °C 33.5 °F /  0.8 °C 29.86 in /  1011.1 hPa SSW 5.4 mph /  8.7 km/h 10.4 mph /  16.7 km/h 59 % 0.00 in /  0 mm
09:15 47.8 °F /  8.8 °C 34.2 °F /  1.2 °C 29.86 in /  1011.1 hPa WSW 4.5 mph /  7.2 km/h 8.0 mph /  12.9 km/h 59 % 0.00 in /  0 mm
09:21 48.6 °F /  9.2 °C 34.5 °F /  1.4 °C 29.85 in /  1010.7 hPa SW 4.0 mph /  6.4 km/h 5.8 mph /  9.3 km/h 58 % 0.00 in /  0 mm
09:26 49.3 °F /  9.6 °C 33.8 °F /  1 °C 29.85 in /  1010.7 hPa SSW 6.0 mph /  9.7 km/h 12.0 mph /  19.3 km/h 55 % 0.00 in /  0 mm
09:31 49.9 °F /  9.9 °C 34.3 °F /  1.3 °C 29.85 in /  1010.7 hPa SW 5.0 mph /  8 km/h 9.0 mph /  14.5 km/h 55 % 0.00 in /  0 mm
09:36 50.4 °F /  10.2 °C 34.4 °F /  1.3 °C 29.85 in /  1010.7 hPa SW 5.0 mph /  8 km/h 9.0 mph /  14.5 km/h 54 % 0.00 in /  0 mm
09:41 50.9 °F /  10.5 °C 34.8 °F /  1.6 °C 29.85 in /  1010.7 hPa WSW 5.3 mph /  8.5 km/h 5.8 mph /  9.3 km/h 54 % 0.00 in /  0 mm
09:46 51.0 °F /  10.6 °C 34.0 °F /  1.1 °C 29.85 in /  1010.7 hPa SW 7.0 mph /  11.3 km/h 13.0 mph /  20.9 km/h 52 % 0.00 in /  0 mm
09:51 51.2 °F /  10.7 °C 34.2 °F /  1.2 °C 29.85 in /  1010.7 hPa SW 7.0 mph /  11.3 km/h 12.0 mph /  19.3 km/h 52 % 0.00 in /  0 mm
09:56 51.0 °F /  10.6 °C 34.0 °F /  1.1 °C 29.84 in /  1010.4 hPa SSW 3.0 mph /  4.8 km/h 12.0 mph /  19.3 km/h 52 % 0.00 in /  0 mm
10:01 51.0 °F /  10.6 °C 34.0 °F /  1.1 °C 29.84 in /  1010.4 hPa West 1.9 mph /  3.1 km/h 11.5 mph /  18.5 km/h 52 % 0.00 in /  0 mm
10:06 51.1 °F /  10.6 °C 34.1 °F /  1.2 °C 29.83 in /  1010 hPa SW 5.3 mph /  8.5 km/h 10.4 mph /  16.7 km/h 52 % 0.00 in /  0 mm
10:11 51.3 °F /  10.7 °C 34.3 °F /  1.3 °C 29.83 in /  1010 hPa SW 5.0 mph /  8 km/h 8.1 mph /  13 km/h 52 % 0.00 in /  0 mm
10:16 51.6 °F /  10.9 °C 34.0 °F /  1.1 °C 29.83 in /  1010 hPa WSW 6.4 mph /  10.3 km/h 11.5 mph /  18.5 km/h 51 % 0.00 in /  0 mm
10:21 51.8 °F /  11 °C 33.7 °F /  0.9 °C 29.83 in /  1010 hPa SSW 3.6 mph /  5.8 km/h 9.2 mph /  14.8 km/h 50 % 0.00 in /  0 mm
10:26 52.2 °F /  11.2 °C 35.1 °F /  1.7 °C 29.82 in /  1009.7 hPa SW 6.3 mph /  10.1 km/h 11.5 mph /  18.5 km/h 52 % 0.00 in /  0 mm
10:31 52.6 °F /  11.4 °C 34.5 °F /  1.4 °C 29.82 in /  1009.7 hPa SW 6.4 mph /  10.3 km/h 11.5 mph /  18.5 km/h 50 % 0.00 in /  0 mm
10:36 53.1 °F /  11.7 °C 34.9 °F /  1.6 °C 29.82 in /  1009.7 hPa SSE 3.5 mph /  5.6 km/h 6.9 mph /  11.1 km/h 50 % 0.00 in /  0 mm
10:41 53.7 °F /  12.1 °C 36.0 °F /  2.2 °C 29.82 in /  1009.7 hPa South 4.9 mph /  7.9 km/h 9.0 mph /  14.5 km/h 51 % 0.00 in /  0 mm
10:46 54.3 °F /  12.4 °C 36.0 °F /  2.2 °C 29.82 in /  1009.7 hPa SW 5.6 mph /  9 km/h 7.0 mph /  11.3 km/h 50 % 0.00 in /  0 mm
10:51 54.8 °F /  12.7 °C 36.0 °F /  2.2 °C 29.82 in /  1009.7 hPa South 2.8 mph /  4.5 km/h 4.6 mph /  7.4 km/h 49 % 0.00 in /  0 mm
10:56 55.3 °F /  12.9 °C 35.4 °F /  1.9 °C 29.81 in /  1009.4 hPa South 1.3 mph /  2.1 km/h 11.5 mph /  18.5 km/h 47 % 0.00 in /  0 mm
11:01 55.8 °F /  13.2 °C 35.9 °F /  2.2 °C 29.81 in /  1009.4 hPa SSW 5.3 mph /  8.5 km/h 11.5 mph /  18.5 km/h 47 % 0.00 in /  0 mm
11:06 56.1 °F /  13.4 °C 35.0 °F /  1.7 °C 29.81 in /  1009.4 hPa SW 5.4 mph /  8.7 km/h 11.5 mph /  18.5 km/h 45 % 0.00 in /  0 mm
11:11 56.3 °F /  13.5 °C 35.8 °F /  2.1 °C 29.80 in /  1009 hPa SW 7.8 mph /  12.6 km/h 13.8 mph /  22.2 km/h 46 % 0.00 in /  0 mm
11:16 56.4 °F /  13.6 °C 35.9 °F /  2.2 °C 29.80 in /  1009 hPa WNW 4.5 mph /  7.2 km/h 5.0 mph /  8 km/h 46 % 0.00 in /  0 mm
11:22 56.8 °F /  13.8 °C 36.2 °F /  2.3 °C 29.80 in /  1009 hPa SSW 8.2 mph /  13.2 km/h 10.4 mph /  16.7 km/h 46 % 0.00 in /  0 mm
11:27 57.2 °F /  14 °C 36.0 °F /  2.2 °C 29.79 in /  1008.7 hPa SSW 3.4 mph /  5.5 km/h 5.8 mph /  9.3 km/h 45 % 0.00 in /  0 mm
11:32 57.1 °F /  13.9 °C 35.4 °F /  1.9 °C 29.79 in /  1008.7 hPa SSW 4.8 mph /  7.7 km/h 12.7 mph /  20.4 km/h 44 % 0.00 in /  0 mm
11:37 57.0 °F /  13.9 °C 35.3 °F /  1.8 °C 29.79 in /  1008.7 hPa South 4.3 mph /  6.9 km/h 8.1 mph /  13 km/h 44 % 0.00 in /  0 mm
11:42 57.1 °F /  13.9 °C 37.0 °F /  2.8 °C 29.78 in /  1008.4 hPa South 7.3 mph /  11.7 km/h 11.5 mph /  18.5 km/h 47 % 0.00 in /  0 mm
11:47 57.2 °F /  14 °C 36.0 °F /  2.2 °C 29.78 in /  1008.4 hPa South 3.9 mph /  6.3 km/h 6.9 mph /  11.1 km/h 45 % 0.00 in /  0 mm
11:52 57.2 °F /  14 °C 35.5 °F /  1.9 °C 29.78 in /  1008.4 hPa SW 6.7 mph /  10.8 km/h 10.4 mph /  16.7 km/h 44 % 0.00 in /  0 mm
11:57 57.0 °F /  13.9 °C 36.4 °F /  2.4 °C 29.78 in /  1008.4 hPa SSW 1.8 mph /  2.9 km/h 4.6 mph /  7.4 km/h 46 % 0.00 in /  0 mm
12:02 57.2 °F /  14 °C 36.0 °F /  2.2 °C 29.77 in /  1008 hPa SW 4.1 mph /  6.6 km/h 11.5 mph /  18.5 km/h 45 % 0.00 in /  0 mm
12:07 57.4 °F /  14.1 °C 36.2 °F /  2.3 °C 29.77 in /  1008 hPa WSW 3.9 mph /  6.3 km/h 8.1 mph /  13 km/h 45 % 0.00 in /  0 mm
12:12 57.4 °F /  14.1 °C 35.6 °F /  2 °C 29.77 in /  1008 hPa SSW 3.8 mph /  6.1 km/h 8.1 mph /  13 km/h 44 % 0.00 in /  0 mm
12:17 57.4 °F /  14.1 °C 35.6 °F /  2 °C 29.77 in /  1008 hPa SW 5.2 mph /  8.4 km/h 11.5 mph /  18.5 km/h 44 % 0.00 in /  0 mm
12:22 57.7 °F /  14.3 °C 36.5 °F /  2.5 °C 29.76 in /  1007.7 hPa South 5.8 mph /  9.3 km/h 7.0 mph /  11.3 km/h 45 % 0.00 in /  0 mm
12:27 57.9 °F /  14.4 °C 36.7 °F /  2.6 °C 29.75 in /  1007.3 hPa WSW 2.7 mph /  4.3 km/h 8.0 mph /  12.9 km/h 45 % 0.00 in /  0 mm
12:32 58.2 °F /  14.6 °C 36.9 °F /  2.7 °C 29.75 in /  1007.3 hPa SW 1.6 mph /  2.6 km/h 3.5 mph /  5.6 km/h 45 % 0.00 in /  0 mm
12:38 58.7 °F /  14.8 °C 36.8 °F /  2.7 °C 29.75 in /  1007.3 hPa SSW 2.6 mph /  4.2 km/h 5.8 mph /  9.3 km/h 44 % 0.00 in /  0 mm
12:43 59.0 °F /  15 °C 37.1 °F /  2.8 °C 29.75 in /  1007.3 hPa SSE 2.5 mph /  4 km/h 5.8 mph /  9.3 km/h 44 % 0.00 in /  0 mm
12:48 59.4 °F /  15.2 °C 37.5 °F /  3.1 °C 29.74 in /  1007 hPa WSW 5.0 mph /  8 km/h 11.0 mph /  17.7 km/h 44 % 0.00 in /  0 mm
12:53 59.4 °F /  15.2 °C 36.9 °F /  2.7 °C 29.74 in /  1007 hPa SSW 3.4 mph /  5.5 km/h 6.9 mph /  11.1 km/h 43 % 0.00 in /  0 mm
12:58 59.4 °F /  15.2 °C 36.3 °F /  2.4 °C 29.74 in /  1007 hPa SSE 2.8 mph /  4.5 km/h 5.8 mph /  9.3 km/h 42 % 0.00 in /  0 mm
13:03 59.3 °F /  15.2 °C 37.4 °F /  3 °C 29.74 in /  1007 hPa SW 8.0 mph /  12.9 km/h 10.4 mph /  16.7 km/h 44 % 0.00 in /  0 mm
13:08 59.1 °F /  15.1 °C 36.0 °F /  2.2 °C 29.73 in /  1006.7 hPa SSW 4.1 mph /  6.6 km/h 10.4 mph /  16.7 km/h 42 % 0.00 in /  0 mm
13:13 59.0 °F /  15 °C 37.7 °F /  3.2 °C 29.73 in /  1006.7 hPa SSW 7.8 mph /  12.6 km/h 11.5 mph /  18.5 km/h 45 % 0.00 in /  0 mm
13:18 59.0 °F /  15 °C 37.1 °F /  2.8 °C 29.73 in /  1006.7 hPa SSW 3.3 mph /  5.3 km/h 7.0 mph /  11.3 km/h 44 % 0.00 in /  0 mm
13:23 59.0 °F /  15 °C 36.5 °F /  2.5 °C 29.72 in /  1006.3 hPa South 1.5 mph /  2.4 km/h 5.8 mph /  9.3 km/h 43 % 0.00 in /  0 mm
13:28 59.0 °F /  15 °C 37.1 °F /  2.8 °C 29.72 in /  1006.3 hPa South 4.3 mph /  6.9 km/h 4.6 mph /  7.4 km/h 44 % 0.00 in /  0 mm
13:33 58.8 °F /  14.9 °C 37.5 °F /  3.1 °C 29.72 in /  1006.3 hPa South 5.0 mph /  8 km/h 7.0 mph /  11.3 km/h 45 % 0.00 in /  0 mm
13:38 58.9 °F /  14.9 °C 37.0 °F /  2.8 °C 29.72 in /  1006.3 hPa SW 6.8 mph /  10.9 km/h 10.4 mph /  16.7 km/h 44 % 0.00 in /  0 mm
13:44 58.6 °F /  14.8 °C 37.9 °F /  3.3 °C 29.71 in /  1006 hPa South 4.2 mph /  6.8 km/h 9.0 mph /  14.5 km/h 46 % 0.00 in /  0 mm
13:49 58.4 °F /  14.7 °C 38.2 °F /  3.4 °C 29.71 in /  1006 hPa SSW 1.6 mph /  2.6 km/h 9.2 mph /  14.8 km/h 47 % 0.00 in /  0 mm
13:54 58.5 °F /  14.7 °C 38.9 °F /  3.8 °C 29.71 in /  1006 hPa South 2.9 mph /  4.7 km/h 5.8 mph /  9.3 km/h 48 % 0.00 in /  0 mm
13:59 58.6 °F /  14.8 °C 39.0 °F /  3.9 °C 29.71 in /  1006 hPa SW 2.9 mph /  4.7 km/h 6.9 mph /  11.1 km/h 48 % 0.00 in /  0 mm
14:04 58.7 °F /  14.8 °C 38.5 °F /  3.6 °C 29.70 in /  1005.6 hPa SW 6.9 mph /  11.1 km/h 10.4 mph /  16.7 km/h 47 % 0.00 in /  0 mm
14:09 58.7 °F /  14.8 °C 38.5 °F /  3.6 °C 29.70 in /  1005.6 hPa South 5.7 mph /  9.2 km/h 10.4 mph /  16.7 km/h 47 % 0.00 in /  0 mm
14:14 58.5 °F /  14.7 °C 38.9 °F /  3.8 °C 29.70 in /  1005.6 hPa South 3.7 mph /  6 km/h 9.0 mph /  14.5 km/h 48 % 0.00 in /  0 mm
14:19 58.0 °F /  14.4 °C 38.4 °F /  3.6 °C 29.69 in /  1005.3 hPa South 5.6 mph /  9 km/h 9.2 mph /  14.8 km/h 48 % 0.00 in /  0 mm
14:24 57.8 °F /  14.3 °C 38.8 °F /  3.8 °C 29.69 in /  1005.3 hPa South 3.1 mph /  5 km/h 9.2 mph /  14.8 km/h 49 % 0.00 in /  0 mm
14:29 57.6 °F /  14.2 °C 39.1 °F /  3.9 °C 29.69 in /  1005.3 hPa SSE 4.8 mph /  7.7 km/h 6.9 mph /  11.1 km/h 50 % 0.00 in /  0 mm
14:34 57.2 °F /  14 °C 38.7 °F /  3.7 °C 29.69 in /  1005.3 hPa South 5.9 mph /  9.5 km/h 11.5 mph /  18.5 km/h 50 % 0.00 in /  0 mm
14:39 56.8 °F /  13.8 °C 38.9 °F /  3.8 °C 29.68 in /  1005 hPa South 0.9 mph /  1.4 km/h 5.8 mph /  9.3 km/h 51 % 0.00 in /  0 mm
14:44 56.4 °F /  13.6 °C 38.5 °F /  3.6 °C 29.68 in /  1005 hPa SE 4.9 mph /  7.9 km/h 11.5 mph /  18.5 km/h 51 % 0.00 in /  0 mm
14:49 56.1 °F /  13.4 °C 38.2 °F /  3.4 °C 29.68 in /  1005 hPa South 3.6 mph /  5.8 km/h 5.8 mph /  9.3 km/h 51 % 0.00 in /  0 mm
14:54 56.0 °F /  13.3 °C 39.1 °F /  3.9 °C 29.68 in /  1005 hPa South 4.4 mph /  7.1 km/h 8.0 mph /  12.9 km/h 53 % 0.00 in /  0 mm
15:00 55.9 °F /  13.3 °C 38.5 °F /  3.6 °C 29.68 in /  1005 hPa SSW 2.8 mph /  4.5 km/h 6.0 mph /  9.7 km/h 52 % 0.00 in /  0 mm
15:05 55.8 °F /  13.2 °C 38.4 °F /  3.6 °C 29.67 in /  1004.6 hPa SSW 3.1 mph /  5 km/h 4.6 mph /  7.4 km/h 52 % 0.00 in /  0 mm
15:10 55.8 °F /  13.2 °C 38.4 °F /  3.6 °C 29.67 in /  1004.6 hPa South 4.2 mph /  6.8 km/h 6.9 mph /  11.1 km/h 52 % 0.00 in /  0 mm
15:15 55.7 °F /  13.2 °C 38.3 °F /  3.5 °C 29.67 in /  1004.6 hPa SSE 1.6 mph /  2.6 km/h 5.0 mph /  8 km/h 52 % 0.00 in /  0 mm
15:16 55.7 °F /  13.2 °C 38.8 °F /  3.8 °C 29.67 in /  1004.6 hPa SE 3.5 mph /  5.6 km/h 7.0 mph /  11.3 km/h 53 % 0.00 in /  0 mm
15:21 55.7 °F /  13.2 °C 38.8 °F /  3.8 °C 29.67 in /  1004.6 hPa SE 3.9 mph /  6.3 km/h 5.8 mph /  9.3 km/h 53 % 0.00 in /  0 mm
15:26 55.7 °F /  13.2 °C 38.8 °F /  3.8 °C 29.67 in /  1004.6 hPa SSE 3.8 mph /  6.1 km/h 6.9 mph /  11.1 km/h 53 % 0.00 in /  0 mm
15:31 55.5 °F /  13.1 °C 38.6 °F /  3.7 °C 29.67 in /  1004.6 hPa SSE 2.3 mph /  3.7 km/h 7.0 mph /  11.3 km/h 53 % 0.00 in /  0 mm
15:36 55.4 °F /  13 °C 39.0 °F /  3.9 °C 29.67 in /  1004.6 hPa SE 4.1 mph /  6.6 km/h 6.0 mph /  9.7 km/h 54 % 0.00 in /  0 mm
15:41 55.3 °F /  12.9 °C 38.9 °F /  3.8 °C 29.67 in /  1004.6 hPa South 0.2 mph /  0.3 km/h 2.3 mph /  3.7 km/h 54 % 0.00 in /  0 mm
15:46 55.2 °F /  12.9 °C 38.8 °F /  3.8 °C 29.67 in /  1004.6 hPa South 3.3 mph /  5.3 km/h 5.8 mph /  9.3 km/h 54 % 0.00 in /  0 mm
15:51 55.2 °F /  12.9 °C 38.8 °F /  3.8 °C 29.67 in /  1004.6 hPa South 3.9 mph /  6.3 km/h 5.8 mph /  9.3 km/h 54 % 0.00 in /  0 mm
15:56 55.1 °F /  12.8 °C 39.2 °F /  4 °C 29.66 in /  1004.3 hPa SSE 3.0 mph /  4.8 km/h 8.0 mph /  12.9 km/h 55 % 0.00 in /  0 mm
16:01 55.0 °F /  12.8 °C 39.1 °F /  3.9 °C 29.66 in /  1004.3 hPa SSE 3.2 mph /  5.1 km/h 5.0 mph /  8 km/h 55 % 0.00 in /  0 mm
16:07 54.9 °F /  12.7 °C 39.0 °F /  3.9 °C 29.66 in /  1004.3 hPa South 2.4 mph /  3.9 km/h 8.0 mph /  12.9 km/h 55 % 0.00 in /  0 mm
16:12 54.8 °F /  12.7 °C 38.9 °F /  3.8 °C 29.66 in /  1004.3 hPa South 5.1 mph /  8.2 km/h 8.1 mph /  13 km/h 55 % 0.00 in /  0 mm
16:17 54.6 °F /  12.6 °C 39.2 °F /  4 °C 29.66 in /  1004.3 hPa SSE 4.8 mph /  7.7 km/h 8.1 mph /  13 km/h 56 % 0.00 in /  0 mm
16:22 54.4 °F /  12.4 °C 39.5 °F /  4.2 °C 29.65 in /  1003.9 hPa ESE 3.8 mph /  6.1 km/h 7.0 mph /  11.3 km/h 57 % 0.00 in /  0 mm
16:27 54.3 °F /  12.4 °C 39.4 °F /  4.1 °C 29.65 in /  1003.9 hPa SSE 1.7 mph /  2.7 km/h 4.0 mph /  6.4 km/h 57 % 0.00 in /  0 mm
16:32 54.2 °F /  12.3 °C 39.7 °F /  4.3 °C 29.65 in /  1003.9 hPa South 4.9 mph /  7.9 km/h 6.9 mph /  11.1 km/h 58 % 0.00 in /  0 mm
16:37 54.1 °F /  12.3 °C 39.6 °F /  4.2 °C 29.65 in /  1003.9 hPa South 1.2 mph /  1.9 km/h 3.5 mph /  5.6 km/h 58 % 0.00 in /  0 mm
16:42 54.0 °F /  12.2 °C 39.5 °F /  4.2 °C 29.65 in /  1003.9 hPa SSE 3.2 mph /  5.1 km/h 6.0 mph /  9.7 km/h 58 % 0.00 in /  0 mm
16:47 53.9 °F /  12.2 °C 39.9 °F /  4.4 °C 29.64 in /  1003.6 hPa South 1.3 mph /  2.1 km/h 3.5 mph /  5.6 km/h 59 % 0.00 in /  0 mm
16:52 53.8 °F /  12.1 °C 39.8 °F /  4.3 °C 29.64 in /  1003.6 hPa SSE 3.0 mph /  4.8 km/h 4.0 mph /  6.4 km/h 59 % 0.00 in /  0 mm
16:57 53.6 °F /  12 °C 40.0 °F /  4.4 °C 29.64 in /  1003.6 hPa SSE 2.2 mph /  3.5 km/h 4.6 mph /  7.4 km/h 60 % 0.00 in /  0 mm
17:02 53.3 °F /  11.8 °C 39.8 °F /  4.3 °C 29.64 in /  1003.6 hPa South 1.8 mph /  2.9 km/h 6.9 mph /  11.1 km/h 60 % 0.00 in /  0 mm
17:07 53.1 °F /  11.7 °C 40.0 °F /  4.4 °C 29.64 in /  1003.6 hPa South 4.5 mph /  7.2 km/h 5.0 mph /  8 km/h 61 % 0.00 in /  0 mm
17:13 52.8 °F /  11.6 °C 40.1 °F /  4.5 °C 29.64 in /  1003.6 hPa SSE 5.2 mph /  8.4 km/h 9.2 mph /  14.8 km/h 62 % 0.00 in /  0 mm
17:18 52.4 °F /  11.3 °C 39.8 °F /  4.3 °C 29.64 in /  1003.6 hPa SSE 2.0 mph /  3.2 km/h 4.6 mph /  7.4 km/h 62 % 0.00 in /  0 mm
17:23 52.3 °F /  11.3 °C 40.1 °F /  4.5 °C 29.63 in /  1003.3 hPa SSE 4.5 mph /  7.2 km/h 9.0 mph /  14.5 km/h 63 % 0.00 in /  0 mm
17:28 51.9 °F /  11.1 °C 40.1 °F /  4.5 °C 29.64 in /  1003.6 hPa SSW 3.6 mph /  5.8 km/h 6.0 mph /  9.7 km/h 64 % 0.00 in /  0 mm
17:33 51.5 °F /  10.8 °C 40.1 °F /  4.5 °C 29.63 in /  1003.3 hPa South 2.0 mph /  3.2 km/h 3.5 mph /  5.6 km/h 65 % 0.00 in /  0 mm
17:38 51.2 °F /  10.7 °C 39.8 °F /  4.3 °C 29.64 in /  1003.6 hPa South 2.2 mph /  3.5 km/h 6.0 mph /  9.7 km/h 65 % 0.00 in /  0 mm
17:43 51.0 °F /  10.6 °C 40.0 °F /  4.4 °C 29.64 in /  1003.6 hPa South 1.9 mph /  3.1 km/h 6.9 mph /  11.1 km/h 66 % 0.00 in /  0 mm
17:48 50.6 °F /  10.3 °C 39.7 °F /  4.3 °C 29.64 in /  1003.6 hPa SSE 2.7 mph /  4.3 km/h 4.6 mph /  7.4 km/h 66 % 0.00 in /  0 mm
17:53 50.2 °F /  10.1 °C 39.7 °F /  4.3 °C 29.64 in /  1003.6 hPa South 4.7 mph /  7.6 km/h 8.1 mph /  13 km/h 67 % 0.00 in /  0 mm
17:58 49.9 °F /  9.9 °C 39.8 °F /  4.3 °C 29.64 in /  1003.6 hPa SSE 4.3 mph /  6.9 km/h 5.8 mph /  9.3 km/h 68 % 0.00 in /  0 mm
18:03 49.4 °F /  9.7 °C 39.7 °F /  4.3 °C 29.64 in /  1003.6 hPa SSW 4.9 mph /  7.9 km/h 7.0 mph /  11.3 km/h 69 % 0.00 in /  0 mm
18:08 49.1 °F /  9.5 °C 39.7 °F /  4.3 °C 29.64 in /  1003.6 hPa South 5.7 mph /  9.2 km/h 10.0 mph /  16.1 km/h 70 % 0.00 in /  0 mm
18:13 48.8 °F /  9.3 °C 39.4 °F /  4.1 °C 29.64 in /  1003.6 hPa South 2.7 mph /  4.3 km/h 5.8 mph /  9.3 km/h 70 % 0.00 in /  0 mm
18:18 48.6 °F /  9.2 °C 39.6 °F /  4.2 °C 29.64 in /  1003.6 hPa South 2.5 mph /  4 km/h 6.9 mph /  11.1 km/h 71 % 0.00 in /  0 mm
18:23 48.3 °F /  9.1 °C 39.3 °F /  4.1 °C 29.64 in /  1003.6 hPa SW 3.8 mph /  6.1 km/h 8.1 mph /  13 km/h 71 % 0.00 in /  0 mm
18:28 48.1 °F /  8.9 °C 39.5 °F /  4.2 °C 29.64 in /  1003.6 hPa South 0.7 mph /  1.1 km/h 6.9 mph /  11.1 km/h 72 % 0.00 in /  0 mm
18:33 47.9 °F /  8.8 °C 39.7 °F /  4.3 °C 29.64 in /  1003.6 hPa SSW 3.3 mph /  5.3 km/h 6.9 mph /  11.1 km/h 73 % 0.00 in /  0 mm
18:38 47.7 °F /  8.7 °C 39.5 °F /  4.2 °C 29.64 in /  1003.6 hPa South 2.2 mph /  3.5 km/h 6.9 mph /  11.1 km/h 73 % 0.00 in /  0 mm
18:44 47.4 °F /  8.6 °C 39.5 °F /  4.2 °C 29.64 in /  1003.6 hPa SSW 3.2 mph /  5.1 km/h 6.9 mph /  11.1 km/h 74 % 0.00 in /  0 mm
18:49 47.3 °F /  8.5 °C 39.4 °F /  4.1 °C 29.64 in /  1003.6 hPa SSW 4.7 mph /  7.6 km/h 6.0 mph /  9.7 km/h 74 % 0.00 in /  0 mm
18:54 47.1 °F /  8.4 °C 39.6 °F /  4.2 °C 29.63 in /  1003.3 hPa SSW 2.5 mph /  4 km/h 5.8 mph /  9.3 km/h 75 % 0.00 in /  0 mm
18:59 46.9 °F /  8.3 °C 39.4 °F /  4.1 °C 29.63 in /  1003.3 hPa South 4.5 mph /  7.2 km/h 10.4 mph /  16.7 km/h 75 % 0.00 in /  0 mm
19:04 46.8 °F /  8.2 °C 39.6 °F /  4.2 °C 29.63 in /  1003.3 hPa SSW 4.2 mph /  6.8 km/h 6.9 mph /  11.1 km/h 76 % 0.00 in /  0 mm
19:09 46.6 °F /  8.1 °C 39.4 °F /  4.1 °C 29.63 in /  1003.3 hPa SSW 3.2 mph /  5.1 km/h 6.0 mph /  9.7 km/h 76 % 0.00 in /  0 mm
19:14 46.6 °F /  8.1 °C 39.4 °F /  4.1 °C 29.63 in /  1003.3 hPa SSW 3.1 mph /  5 km/h 7.0 mph /  11.3 km/h 76 % 0.00 in /  0 mm
19:19 46.5 °F /  8.1 °C 39.7 °F /  4.3 °C 29.63 in /  1003.3 hPa SW 3.1 mph /  5 km/h 6.0 mph /  9.7 km/h 77 % 0.00 in /  0 mm
19:24 46.5 °F /  8.1 °C 39.7 °F /  4.3 °C 29.63 in /  1003.3 hPa SSW 5.1 mph /  8.2 km/h 7.0 mph /  11.3 km/h 77 % 0.00 in /  0 mm
19:29 46.5 °F /  8.1 °C 39.7 °F /  4.3 °C 29.63 in /  1003.3 hPa SW 2.6 mph /  4.2 km/h 5.8 mph /  9.3 km/h 77 % 0.00 in /  0 mm
19:34 46.5 °F /  8.1 °C 39.7 °F /  4.3 °C 29.64 in /  1003.6 hPa SSW 3.6 mph /  5.8 km/h 6.9 mph /  11.1 km/h 77 % 0.00 in /  0 mm
19:39 46.6 °F /  8.1 °C 39.8 °F /  4.3 °C 29.64 in /  1003.6 hPa SSW 5.2 mph /  8.4 km/h 6.0 mph /  9.7 km/h 77 % 0.00 in /  0 mm
19:44 46.7 °F /  8.2 °C 39.9 °F /  4.4 °C 29.64 in /  1003.6 hPa SSW 3.6 mph /  5.8 km/h 5.8 mph /  9.3 km/h 77 % 0.00 in /  0 mm
19:50 46.8 °F /  8.2 °C 39.6 °F /  4.2 °C 29.64 in /  1003.6 hPa SSW 4.2 mph /  6.8 km/h 8.1 mph /  13 km/h 76 % 0.00 in /  0 mm
19:55 47.0 °F /  8.3 °C 39.8 °F /  4.3 °C 29.63 in /  1003.3 hPa SW 3.1 mph /  5 km/h 6.0 mph /  9.7 km/h 76 % 0.00 in /  0 mm
20:00 47.1 °F /  8.4 °C 39.9 °F /  4.4 °C 29.62 in /  1002.9 hPa SW 2.3 mph /  3.7 km/h 5.8 mph /  9.3 km/h 76 % 0.00 in /  0 mm
20:05 47.3 °F /  8.5 °C 40.1 °F /  4.5 °C 29.62 in /  1002.9 hPa SSW 3.4 mph /  5.5 km/h 5.8 mph /  9.3 km/h 76 % 0.00 in /  0 mm
20:10 47.4 °F /  8.6 °C 39.9 °F /  4.4 °C 29.62 in /  1002.9 hPa SSW 2.9 mph /  4.7 km/h 7.0 mph /  11.3 km/h 75 % 0.00 in /  0 mm
20:15 47.6 °F /  8.7 °C 40.1 °F /  4.5 °C 29.62 in /  1002.9 hPa SW 4.6 mph /  7.4 km/h 6.9 mph /  11.1 km/h 75 % 0.00 in /  0 mm
20:20 47.8 °F /  8.8 °C 40.3 °F /  4.6 °C 29.63 in /  1003.3 hPa South 4.3 mph /  6.9 km/h 6.9 mph /  11.1 km/h 75 % 0.00 in /  0 mm
20:25 48.0 °F /  8.9 °C 40.1 °F /  4.5 °C 29.63 in /  1003.3 hPa South 4.3 mph /  6.9 km/h 8.1 mph /  13 km/h 74 % 0.00 in /  0 mm
20:30 48.3 °F /  9.1 °C 40.4 °F /  4.7 °C 29.62 in /  1002.9 hPa SSW 3.2 mph /  5.1 km/h 6.9 mph /  11.1 km/h 74 % 0.00 in /  0 mm
20:35 48.5 °F /  9.2 °C 40.6 °F /  4.8 °C 29.63 in /  1003.3 hPa SSW 4.2 mph /  6.8 km/h 5.0 mph /  8 km/h 74 % 0.00 in /  0 mm
20:40 48.7 °F /  9.3 °C 40.8 °F /  4.9 °C 29.63 in /  1003.3 hPa South 2.0 mph /  3.2 km/h 3.5 mph /  5.6 km/h 74 % 0.00 in /  0 mm
20:45 48.8 °F /  9.3 °C 40.5 °F /  4.7 °C 29.63 in /  1003.3 hPa SSW 4.7 mph /  7.6 km/h 6.9 mph /  11.1 km/h 73 % 0.00 in /  0 mm
20:50 48.9 °F /  9.4 °C 40.6 °F /  4.8 °C 29.63 in /  1003.3 hPa SW 1.8 mph /  2.9 km/h 4.6 mph /  7.4 km/h 73 % 0.00 in /  0 mm
20:55 49.0 °F /  9.4 °C 40.7 °F /  4.8 °C 29.63 in /  1003.3 hPa SW 2.6 mph /  4.2 km/h 4.6 mph /  7.4 km/h 73 % 0.00 in /  0 mm
21:00 49.1 °F /  9.5 °C 40.8 °F /  4.9 °C 29.63 in /  1003.3 hPa South 3.4 mph /  5.5 km/h 5.0 mph /  8 km/h 73 % 0.00 in /  0 mm
21:05 49.1 °F /  9.5 °C 40.8 °F /  4.9 °C 29.63 in /  1003.3 hPa SW 3.5 mph /  5.6 km/h 4.6 mph /  7.4 km/h 73 % 0.00 in /  0 mm
21:10 49.3 °F /  9.6 °C 40.7 °F /  4.8 °C 29.63 in /  1003.3 hPa SSW 3.0 mph /  4.8 km/h 6.9 mph /  11.1 km/h 72 % 0.00 in /  0 mm
21:16 49.4 °F /  9.7 °C 40.7 °F /  4.8 °C 29.62 in /  1002.9 hPa SSW 3.0 mph /  4.8 km/h 5.0 mph /  8 km/h 72 % 0.00 in /  0 mm
21:21 49.6 °F /  9.8 °C 40.9 °F /  4.9 °C 29.62 in /  1002.9 hPa SSW 3.0 mph /  4.8 km/h 7.0 mph /  11.3 km/h 72 % 0.00 in /  0 mm
21:26 49.8 °F /  9.9 °C 41.1 °F /  5.1 °C 29.61 in /  1002.6 hPa SSW 3.0 mph /  4.8 km/h 7.0 mph /  11.3 km/h 72 % 0.00 in /  0 mm
21:31 49.9 °F /  9.9 °C 41.6 °F /  5.3 °C 29.61 in /  1002.6 hPa SSW 5.0 mph /  8 km/h 8.0 mph /  12.9 km/h 73 % 0.00 in /  0 mm
21:36 50.1 °F /  10.1 °C 41.8 °F /  5.4 °C 29.62 in /  1002.9 hPa SSW 2.0 mph /  3.2 km/h 10.0 mph /  16.1 km/h 73 % 0.00 in /  0 mm
21:41 50.1 °F /  10.1 °C 41.4 °F /  5.2 °C 29.62 in /  1002.9 hPa SSW 2.0 mph /  3.2 km/h 7.0 mph /  11.3 km/h 72 % 0.00 in /  0 mm
21:46 50.2 °F /  10.1 °C 41.5 °F /  5.3 °C 29.62 in /  1002.9 hPa SW 1.7 mph /  2.7 km/h 4.6 mph /  7.4 km/h 72 % 0.00 in /  0 mm
21:51 50.3 °F /  10.2 °C 41.6 °F /  5.3 °C 29.61 in /  1002.6 hPa SSW 3.0 mph /  4.8 km/h 5.0 mph /  8 km/h 72 % 0.00 in /  0 mm
21:56 50.4 °F /  10.2 °C 41.7 °F /  5.4 °C 29.61 in /  1002.6 hPa SSW 3.0 mph /  4.8 km/h 7.0 mph /  11.3 km/h 72 % 0.00 in /  0 mm
22:01 50.5 °F /  10.3 °C 41.4 °F /  5.2 °C 29.61 in /  1002.6 hPa South 1.7 mph /  2.7 km/h 9.2 mph /  14.8 km/h 71 % 0.00 in /  0 mm
22:06 50.5 °F /  10.3 °C 41.4 °F /  5.2 °C 29.61 in /  1002.6 hPa SW 2.0 mph /  3.2 km/h 9.0 mph /  14.5 km/h 71 % 0.00 in /  0 mm
22:11 50.6 °F /  10.3 °C 41.2 °F /  5.1 °C 29.61 in /  1002.6 hPa SSW 2.0 mph /  3.2 km/h 7.0 mph /  11.3 km/h 70 % 0.00 in /  0 mm
22:16 50.7 °F /  10.4 °C 41.3 °F /  5.2 °C 29.61 in /  1002.6 hPa SSW 1.0 mph /  1.6 km/h 7.0 mph /  11.3 km/h 70 % 0.00 in /  0 mm
22:21 50.8 °F /  10.4 °C 41.0 °F /  5 °C 29.61 in /  1002.6 hPa SW 3.5 mph /  5.6 km/h 4.0 mph /  6.4 km/h 69 % 0.00 in /  0 mm
22:26 50.9 °F /  10.5 °C 41.1 °F /  5.1 °C 29.60 in /  1002.3 hPa SW 2.0 mph /  3.2 km/h 5.0 mph /  8 km/h 69 % 0.00 in /  0 mm
22:31 51.0 °F /  10.6 °C 41.2 °F /  5.1 °C 29.61 in /  1002.6 hPa SW 2.0 mph /  3.2 km/h 7.0 mph /  11.3 km/h 69 % 0.00 in /  0 mm
22:36 51.1 °F /  10.6 °C 41.3 °F /  5.2 °C 29.61 in /  1002.6 hPa SW 2.0 mph /  3.2 km/h 8.0 mph /  12.9 km/h 69 % 0.00 in /  0 mm
22:41 51.2 °F /  10.7 °C 41.4 °F /  5.2 °C 29.61 in /  1002.6 hPa SW 2.0 mph /  3.2 km/h 5.0 mph /  8 km/h 69 % 0.00 in /  0 mm
22:46 51.3 °F /  10.7 °C 41.5 °F /  5.3 °C 29.61 in /  1002.6 hPa SSW 1.0 mph /  1.6 km/h 5.0 mph /  8 km/h 69 % 0.00 in /  0 mm
22:51 51.3 °F /  10.7 °C 41.1 °F /  5.1 °C 29.62 in /  1002.9 hPa SSW 2.0 mph /  3.2 km/h 5.0 mph /  8 km/h 68 % 0.00 in /  0 mm
22:56 51.4 °F /  10.8 °C 41.6 °F /  5.3 °C 29.62 in /  1002.9 hPa SW 1.3 mph /  2.1 km/h 4.6 mph /  7.4 km/h 69 % 0.00 in /  0 mm
23:01 51.4 °F /  10.8 °C 41.6 °F /  5.3 °C 29.61 in /  1002.6 hPa SSW 0.7 mph /  1.1 km/h 5.8 mph /  9.3 km/h 69 % 0.00 in /  0 mm
23:06 51.3 °F /  10.7 °C 41.5 °F /  5.3 °C 29.61 in /  1002.6 hPa SSW 1.8 mph /  2.9 km/h 4.0 mph /  6.4 km/h 69 % 0.00 in /  0 mm
23:11 51.3 °F /  10.7 °C 41.5 °F /  5.3 °C 29.61 in /  1002.6 hPa SW 2.6 mph /  4.2 km/h 4.0 mph /  6.4 km/h 69 % 0.00 in /  0 mm
23:16 51.2 °F /  10.7 °C 41.4 °F /  5.2 °C 29.61 in /  1002.6 hPa WSW 1.6 mph /  2.6 km/h 6.0 mph /  9.7 km/h 69 % 0.00 in /  0 mm
23:21 51.2 °F /  10.7 °C 41.4 °F /  5.2 °C 29.61 in /  1002.6 hPa SSW 2.6 mph /  4.2 km/h 4.6 mph /  7.4 km/h 69 % 0.00 in /  0 mm
23:26 51.1 °F /  10.6 °C 41.3 °F /  5.2 °C 29.61 in /  1002.6 hPa South 3.8 mph /  6.1 km/h 5.8 mph /  9.3 km/h 69 % 0.00 in /  0 mm
23:31 51.0 °F /  10.6 °C 41.6 °F /  5.3 °C 29.61 in /  1002.6 hPa SW 2.8 mph /  4.5 km/h 3.5 mph /  5.6 km/h 70 % 0.00 in /  0 mm
23:36 51.0 °F /  10.6 °C 41.6 °F /  5.3 °C 29.61 in /  1002.6 hPa SSW 0.6 mph /  1 km/h 5.0 mph /  8 km/h 70 % 0.00 in /  0 mm
23:41 50.9 °F /  10.5 °C 41.8 °F /  5.4 °C 29.61 in /  1002.6 hPa SSW 1.4 mph /  2.3 km/h 3.5 mph /  5.6 km/h 71 % 0.00 in /  0 mm
23:46 50.9 °F /  10.5 °C 41.8 °F /  5.4 °C 29.61 in /  1002.6 hPa SW 3.3 mph /  5.3 km/h 5.8 mph /  9.3 km/h 71 % 0.00 in /  0 mm
23:51 50.8 °F /  10.4 °C 42.1 °F /  5.6 °C 29.60 in /  1002.3 hPa SSW 3.4 mph /  5.5 km/h 6.0 mph /  9.7 km/h 72 % 0.00 in /  0 mm
23:57 50.8 °F /  10.4 °C 42.1 °F /  5.6 °C 29.61 in /  1002.6 hPa SSW 2.6 mph /  4.2 km/h 5.0 mph /  8 km/h 72 % 0.00 in /  0 mm
Crab Meadow Weather
Compliments of Weather Underground - 3 mb

Script developed by  Jim McMurry - jmcmurry@mwt.net Adapted for the template by  Wim van der Kuil - Leuven-Template.eu

Extremes: Alaska and Hawaii have the same heat record. In Pahala, Hawaii the temperature on April 27, 1931 was 100 degrees F. Alaska's state heat record is also 100 degrees F. on June 27, 1915 at Fort Yukon.